Saint Augustine, FL (32084)

3:28 AM EDT on September 03, 2014 (GMT -0400)
Salt Run | Change Station
CLOSE
Current Station
Personal Weather Station
Location: St. Augustine, FL
Elevation: 35 ft
Nearby Weather Stations

Elev 35 ft 29.89 °N, 81.30 °W | Updated 8 seconds ago

Clear
Clear
78.3 °F
Feels Like 81 °F
N
0.9
Wind Variable Wind from SW
Gusts 3.0 mph

Today
High -- | Low -- °F
--% Chance of Precip.
Yesterday
High -- | Low -- °F
Precip. -- in
7:03 AM 7:45 PM
First Quarter, 59% visible
Pressure 30.03 in
Visibility 10.0 miles
Clouds Clear
Heat Index 81 °F
Dew Point 74 °F
Humidity 87%
Rainfall 0.00 in
Snow Depth Not available.
UV 0 out of 12
Pollen 8.00 out of 12
Ozone Good
PM2.5 Good
Flu Activity Not available.
METAR KSGJ 030658Z AUTO 00000KT 10SM CLR 26/23 A3003 RMK AO2 SLP167 T02560228

More Conditions Fewer Conditions

Pressure 30.03 in
Visibility 10.0 miles
Clouds Clear
Heat Index 81 °F
Dew Point 74 °F
Humidity 87%
Rainfall 0.00 in
Snow Depth Not available.
UV 0 out of 12
Pollen 8.00 out of 12
Ozone Good
PM2.5 Good
Flu Activity Not available.
METAR KSGJ 030658Z AUTO 00000KT 10SM CLR 26/23 A3003 RMK AO2 SLP167 T02560228

More Conditions Fewer Conditions

10-Day Weather Forecast

Almanac

Astronomy

Sep. 03, 2014 Rise Set
Actual Time 7:03 AM EDT 7:45 PM EDT
Civil Twilight 6:39 AM EDT 8:09 PM EDT
Nautical Twilight 6:10 AM EDT 8:37 PM EDT
Astronomical Twilight 5:41 AM EDT 9:07 PM EDT
Moon 3:12 PM EDT 1:09 AM EDT
Length of Visible Light 13h 30m
Length of Day
12h 41m
Tomorrow will be 1m 45s shorter.
First Quarter, 59% of the Moon is Illuminated
Today
First Quarter
Sep 8
Full
Sep 15
Last Quarter
Sep 24
New
Oct 1
First Quarter

Today's Extremes

State Highs State Lows

Community

WunderPhotos

Upload Photos

1,749,891 photos uploaded!

Nearby

Air Quality

  Air Quality AQ Index Pollutant
Yesterday Moderate
PM2.5
Yesterday Good
OZONE
Current Good
PM2.5
Current Good
OZONE
Wednesday Good
OZONE
Wednesday Good
PM2.5

Snow Depth

Station Depth Elevation
No new snow has been reported.

Earthquake Activity

City Distance Mag. Time & Date
No recent earthquake activity has been reported nearby.
Minimum magnitude displayed is 2.5.

Coastal Water Temperatures

Place Temperature
Mayport (Bar Pilots Dock), FL 84.0 °F
Fernandina Beach, FL 87.1 °F
Trident Pier, FL 86.0 °F

Nearby Weather Stations